To NAV CANADA Home Page Login to a new session Search on AWWS site Feedback and Comments Disclaimer Vers la page française équivalente Tips FAQ What's new on the site To the Forecasts and Observations / NOTAM section To "File a Flight Plan" website Publications and other links Update of the User's profile FIC Telephone Numbers My Weather Data Folder Route Weather Data Regional Weather Data Local Weather Data To the Forecasts and Observations / NOTAM section
Request Generated 08/22/2017 at 03:16:32 UTC . Weather information available at that time is displayed.

METAR/TAF

PRINCE ALBERT (GLASS FIELD)/SK    

METAR CYPA 220300Z 25003KT 15SM FEW075 BKN250 13/05 A3008 RMK AC1CI5
AC TR SLP198=
METAR CYPA 220200Z 30006KT 15SM FEW075 SCT250 16/05 A3007 RMK CU1CI3
CU TR SLP192 DENSITY ALT 1700FT=
METAR CYPA 220100Z 32005KT 15SM FEW075 FEW250 20/06 A3005 RMK CU1CI2
CU TR SLP188 DENSITY ALT 2200FT=

TAF CYPA 220038Z 2201/2213 31010KT P6SM FEW070
BECMG 2208/2210 27005KT
RMK NXT FCST BY 220700Z=
Your time UTC time
Weather data provided by Environment Canada and NAV CANADA